sensor_id;sensor_type;location;lat;lon;timestamp;temperature;humidity
60909;DHT22;46780;48.128;-1.704;2023-07-09T00:02:20;22.40;80.00
60909;DHT22;46780;48.128;-1.704;2023-07-09T00:04:46;22.40;80.10
60909;DHT22;46780;48.128;-1.704;2023-07-09T00:07:18;22.40;80.20
60909;DHT22;46780;48.128;-1.704;2023-07-09T00:09:45;22.30;80.40
60909;DHT22;46780;48.128;-1.704;2023-07-09T00:12:13;22.30;80.50
60909;DHT22;46780;48.128;-1.704;2023-07-09T00:14:40;22.20;80.80
60909;DHT22;46780;48.128;-1.704;2023-07-09T00:17:10;22.20;81.10
60909;DHT22;46780;48.128;-1.704;2023-07-09T00:19:36;22.20;81.60
60909;DHT22;46780;48.128;-1.704;2023-07-09T00:22:04;22.10;81.80
60909;DHT22;46780;48.128;-1.704;2023-07-09T00:24:36;22.10;82.20
60909;DHT22;46780;48.128;-1.704;2023-07-09T00:27:07;22.10;82.50
60909;DHT22;46780;48.128;-1.704;2023-07-09T00:29:34;22.10;82.80
60909;DHT22;46780;48.128;-1.704;2023-07-09T00:32:00;22.10;83.30
60909;DHT22;46780;48.128;-1.704;2023-07-09T00:34:28;22.00;83.70
60909;DHT22;46780;48.128;-1.704;2023-07-09T00:36:55;22.00;84.20
60909;DHT22;46780;48.128;-1.704;2023-07-09T00:39:22;22.00;84.90
60909;DHT22;46780;48.128;-1.704;2023-07-09T00:41:49;21.90;85.50
60909;DHT22;46780;48.128;-1.704;2023-07-09T00:44:28;21.90;86.20
60909;DHT22;46780;48.128;-1.704;2023-07-09T00:47:22;21.90;87.20
60909;DHT22;46780;48.128;-1.704;2023-07-09T00:49:58;21.80;87.90
60909;DHT22;46780;48.128;-1.704;2023-07-09T00:52:29;21.70;88.10
60909;DHT22;46780;48.128;-1.704;2023-07-09T00:54:59;21.70;88.60
60909;DHT22;46780;48.128;-1.704;2023-07-09T00:57:27;21.80;88.80
60909;DHT22;46780;48.128;-1.704;2023-07-09T00:59:57;21.80;89.00
60909;DHT22;46780;48.128;-1.704;2023-07-09T01:02:25;21.80;89.50
60909;DHT22;46780;48.128;-1.704;2023-07-09T01:04:56;21.80;90.00
60909;DHT22;46780;48.128;-1.704;2023-07-09T01:07:24;21.70;90.30
60909;DHT22;46780;48.128;-1.704;2023-07-09T01:09:51;21.70;90.40
60909;DHT22;46780;48.128;-1.704;2023-07-09T01:12:19;21.70;90.50
60909;DHT22;46780;48.128;-1.704;2023-07-09T01:14:47;21.70;90.60
60909;DHT22;46780;48.128;-1.704;2023-07-09T01:17:14;21.70;90.50
60909;DHT22;46780;48.128;-1.704;2023-07-09T01:19:42;21.70;90.60
60909;DHT22;46780;48.128;-1.704;2023-07-09T01:22:11;21.60;91.20
60909;DHT22;46780;48.128;-1.704;2023-07-09T01:25:04;21.60;91.00
60909;DHT22;46780;48.128;-1.704;2023-07-09T01:27:33;21.50;91.30
60909;DHT22;46780;48.128;-1.704;2023-07-09T01:30:03;21.50;91.40
60909;DHT22;46780;48.128;-1.704;2023-07-09T01:32:30;21.50;91.60
60909;DHT22;46780;48.128;-1.704;2023-07-09T01:34:58;21.50;91.60
60909;DHT22;46780;48.128;-1.704;2023-07-09T01:37:27;21.50;91.70
60909;DHT22;46780;48.128;-1.704;2023-07-09T01:39:54;21.50;91.90
60909;DHT22;46780;48.128;-1.704;2023-07-09T01:42:22;21.50;92.00
60909;DHT22;46780;48.128;-1.704;2023-07-09T01:44:50;21.50;92.20
60909;DHT22;46780;48.128;-1.704;2023-07-09T01:47:17;21.40;92.40
60909;DHT22;46780;48.128;-1.704;2023-07-09T01:49:44;21.40;92.40
60909;DHT22;46780;48.128;-1.704;2023-07-09T01:52:10;21.40;92.60
60909;DHT22;46780;48.128;-1.704;2023-07-09T01:54:38;21.30;92.90
60909;DHT22;46780;48.128;-1.704;2023-07-09T01:57:18;21.30;93.10
60909;DHT22;46780;48.128;-1.704;2023-07-09T01:59:44;21.30;93.20
60909;DHT22;46780;48.128;-1.704;2023-07-09T02:02:11;21.30;93.20
60909;DHT22;46780;48.128;-1.704;2023-07-09T02:04:37;21.30;93.30
60909;DHT22;46780;48.128;-1.704;2023-07-09T02:07:04;21.30;93.40
60909;DHT22;46780;48.128;-1.704;2023-07-09T02:09:31;21.30;93.40
60909;DHT22;46780;48.128;-1.704;2023-07-09T02:11:58;21.30;93.40
60909;DHT22;46780;48.128;-1.704;2023-07-09T02:14:25;21.40;93.40
60909;DHT22;46780;48.128;-1.704;2023-07-09T02:16:51;21.40;93.40
60909;DHT22;46780;48.128;-1.704;2023-07-09T02:19:18;21.40;93.30
60909;DHT22;46780;48.128;-1.704;2023-07-09T02:21:44;21.50;93.20
60909;DHT22;46780;48.128;-1.704;2023-07-09T02:24:11;21.50;93.10
60909;DHT22;46780;48.128;-1.704;2023-07-09T02:26:37;21.50;93.20
60909;DHT22;46780;48.128;-1.704;2023-07-09T02:29:05;21.50;93.30
60909;DHT22;46780;48.128;-1.704;2023-07-09T02:31:32;21.50;93.40
60909;DHT22;46780;48.128;-1.704;2023-07-09T02:33:58;21.50;93.50
60909;DHT22;46780;48.128;-1.704;2023-07-09T02:36:25;21.50;93.60
60909;DHT22;46780;48.128;-1.704;2023-07-09T02:38:51;21.50;93.50
60909;DHT22;46780;48.128;-1.704;2023-07-09T02:41:18;21.50;93.60
60909;DHT22;46780;48.128;-1.704;2023-07-09T02:43:45;21.50;93.70
60909;DHT22;46780;48.128;-1.704;2023-07-09T02:46:13;21.50;93.80
60909;DHT22;46780;48.128;-1.704;2023-07-09T02:48:39;21.50;93.80
60909;DHT22;46780;48.128;-1.704;2023-07-09T02:51:06;21.40;93.80
60909;DHT22;46780;48.128;-1.704;2023-07-09T02:53:32;21.50;93.70
60909;DHT22;46780;48.128;-1.704;2023-07-09T02:55:59;21.50;93.60
60909;DHT22;46780;48.128;-1.704;2023-07-09T02:58:25;21.50;93.50
60909;DHT22;46780;48.128;-1.704;2023-07-09T03:00:51;21.50;93.60
60909;DHT22;46780;48.128;-1.704;2023-07-09T03:03:22;21.40;93.70
60909;DHT22;46780;48.128;-1.704;2023-07-09T03:05:51;21.40;93.90
60909;DHT22;46780;48.128;-1.704;2023-07-09T03:08:21;21.30;94.00
60909;DHT22;46780;48.128;-1.704;2023-07-09T03:10:50;21.20;94.20
60909;DHT22;46780;48.128;-1.704;2023-07-09T03:13:18;21.20;94.40
60909;DHT22;46780;48.128;-1.704;2023-07-09T03:15:54;21.20;94.30
60909;DHT22;46780;48.128;-1.704;2023-07-09T03:18:24;21.20;94.40
60909;DHT22;46780;48.128;-1.704;2023-07-09T03:20:52;21.10;94.60
60909;DHT22;46780;48.128;-1.704;2023-07-09T03:23:20;21.00;94.90
60909;DHT22;46780;48.128;-1.704;2023-07-09T03:25:47;21.10;95.00
60909;DHT22;46780;48.128;-1.704;2023-07-09T03:28:14;21.10;94.90
60909;DHT22;46780;48.128;-1.704;2023-07-09T03:30:42;21.10;94.80
60909;DHT22;46780;48.128;-1.704;2023-07-09T03:33:10;21.20;94.70
60909;DHT22;46780;48.128;-1.704;2023-07-09T03:35:38;21.20;94.70
60909;DHT22;46780;48.128;-1.704;2023-07-09T03:38:06;21.10;94.70
60909;DHT22;46780;48.128;-1.704;2023-07-09T03:40:33;21.10;94.90
60909;DHT22;46780;48.128;-1.704;2023-07-09T03:43:01;21.00;95.20
60909;DHT22;46780;48.128;-1.704;2023-07-09T03:45:27;20.90;95.50
60909;DHT22;46780;48.128;-1.704;2023-07-09T03:47:54;20.90;95.80
60909;DHT22;46780;48.128;-1.704;2023-07-09T03:50:21;20.80;96.10
60909;DHT22;46780;48.128;-1.704;2023-07-09T03:52:48;20.70;96.50
60909;DHT22;46780;48.128;-1.704;2023-07-09T03:55:15;20.60;97.10
60909;DHT22;46780;48.128;-1.704;2023-07-09T03:57:42;20.50;97.60
60909;DHT22;46780;48.128;-1.704;2023-07-09T04:00:10;20.50;97.90
60909;DHT22;46780;48.128;-1.704;2023-07-09T04:02:36;20.50;98.00
60909;DHT22;46780;48.128;-1.704;2023-07-09T04:05:04;20.50;98.00
60909;DHT22;46780;48.128;-1.704;2023-07-09T04:07:31;20.50;98.00
60909;DHT22;46780;48.128;-1.704;2023-07-09T04:09:59;20.50;98.00
60909;DHT22;46780;48.128;-1.704;2023-07-09T04:12:27;20.50;98.00
60909;DHT22;46780;48.128;-1.704;2023-07-09T04:14:53;20.60;97.90
60909;DHT22;46780;48.128;-1.704;2023-07-09T04:17:20;20.60;97.80
60909;DHT22;46780;48.128;-1.704;2023-07-09T04:19:47;20.70;97.80
60909;DHT22;46780;48.128;-1.704;2023-07-09T04:22:14;20.70;97.80
60909;DHT22;46780;48.128;-1.704;2023-07-09T04:24:40;20.70;97.80
60909;DHT22;46780;48.128;-1.704;2023-07-09T04:27:09;20.70;97.80
60909;DHT22;46780;48.128;-1.704;2023-07-09T04:29:36;20.80;98.00
60909;DHT22;46780;48.128;-1.704;2023-07-09T04:32:03;20.80;98.00
60909;DHT22;46780;48.128;-1.704;2023-07-09T04:34:30;20.80;98.10
60909;DHT22;46780;48.128;-1.704;2023-07-09T04:36:57;20.70;98.20
60909;DHT22;46780;48.128;-1.704;2023-07-09T04:39:23;20.70;98.30
60909;DHT22;46780;48.128;-1.704;2023-07-09T04:41:50;20.60;98.40
60909;DHT22;46780;48.128;-1.704;2023-07-09T04:44:18;20.70;98.60
60909;DHT22;46780;48.128;-1.704;2023-07-09T04:46:44;20.70;98.50
60909;DHT22;46780;48.128;-1.704;2023-07-09T04:49:10;20.70;98.50
60909;DHT22;46780;48.128;-1.704;2023-07-09T04:51:37;20.70;98.30
60909;DHT22;46780;48.128;-1.704;2023-07-09T04:54:03;20.80;98.40
60909;DHT22;46780;48.128;-1.704;2023-07-09T04:56:30;20.80;98.30
60909;DHT22;46780;48.128;-1.704;2023-07-09T04:58:57;20.90;98.20
60909;DHT22;46780;48.128;-1.704;2023-07-09T05:01:24;20.90;98.10
60909;DHT22;46780;48.128;-1.704;2023-07-09T05:03:51;20.90;98.40
60909;DHT22;46780;48.128;-1.704;2023-07-09T05:06:17;20.90;97.90
60909;DHT22;46780;48.128;-1.704;2023-07-09T05:08:44;20.90;98.00
60909;DHT22;46780;48.128;-1.704;2023-07-09T05:11:10;20.90;98.00
60909;DHT22;46780;48.128;-1.704;2023-07-09T05:13:37;20.90;97.90
60909;DHT22;46780;48.128;-1.704;2023-07-09T05:16:03;20.90;97.50
60909;DHT22;46780;48.128;-1.704;2023-07-09T05:18:31;20.90;97.10
60909;DHT22;46780;48.128;-1.704;2023-07-09T05:20:58;20.90;97.00
60909;DHT22;46780;48.128;-1.704;2023-07-09T05:23:25;20.90;96.60
60909;DHT22;46780;48.128;-1.704;2023-07-09T05:25:56;20.90;95.90
60909;DHT22;46780;48.128;-1.704;2023-07-09T05:28:22;20.90;95.80
60909;DHT22;46780;48.128;-1.704;2023-07-09T05:30:49;21.00;95.60
60909;DHT22;46780;48.128;-1.704;2023-07-09T05:33:16;21.00;95.40
60909;DHT22;46780;48.128;-1.704;2023-07-09T05:35:44;21.10;95.30
60909;DHT22;46780;48.128;-1.704;2023-07-09T05:38:11;21.10;95.40
60909;DHT22;46780;48.128;-1.704;2023-07-09T05:40:37;21.10;95.50
60909;DHT22;46780;48.128;-1.704;2023-07-09T05:43:04;21.20;95.60
60909;DHT22;46780;48.128;-1.704;2023-07-09T05:45:31;21.10;95.80
60909;DHT22;46780;48.128;-1.704;2023-07-09T05:47:57;21.20;96.00
60909;DHT22;46780;48.128;-1.704;2023-07-09T05:50:24;21.20;96.10
60909;DHT22;46780;48.128;-1.704;2023-07-09T05:52:52;21.20;96.10
60909;DHT22;46780;48.128;-1.704;2023-07-09T05:55:18;21.20;96.20
60909;DHT22;46780;48.128;-1.704;2023-07-09T05:57:45;21.20;96.30
60909;DHT22;46780;48.128;-1.704;2023-07-09T06:00:12;21.20;96.30
60909;DHT22;46780;48.128;-1.704;2023-07-09T06:02:39;21.30;96.30
60909;DHT22;46780;48.128;-1.704;2023-07-09T06:05:06;21.30;96.20
60909;DHT22;46780;48.128;-1.704;2023-07-09T06:07:33;21.30;96.00
60909;DHT22;46780;48.128;-1.704;2023-07-09T06:10:01;21.40;95.80
60909;DHT22;46780;48.128;-1.704;2023-07-09T06:12:27;21.50;95.70
60909;DHT22;46780;48.128;-1.704;2023-07-09T06:14:54;21.50;95.70
60909;DHT22;46780;48.128;-1.704;2023-07-09T06:17:20;21.50;95.80
60909;DHT22;46780;48.128;-1.704;2023-07-09T06:19:46;21.50;95.70
60909;DHT22;46780;48.128;-1.704;2023-07-09T06:22:13;21.50;95.60
60909;DHT22;46780;48.128;-1.704;2023-07-09T06:24:39;21.40;95.60
60909;DHT22;46780;48.128;-1.704;2023-07-09T06:27:08;21.50;95.60
60909;DHT22;46780;48.128;-1.704;2023-07-09T06:29:35;21.40;95.70
60909;DHT22;46780;48.128;-1.704;2023-07-09T06:32:02;21.40;95.80
60909;DHT22;46780;48.128;-1.704;2023-07-09T06:34:29;21.50;95.80
60909;DHT22;46780;48.128;-1.704;2023-07-09T06:36:56;21.50;95.50
60909;DHT22;46780;48.128;-1.704;2023-07-09T06:39:23;21.60;95.30
60909;DHT22;46780;48.128;-1.704;2023-07-09T06:41:49;21.60;94.90
60909;DHT22;46780;48.128;-1.704;2023-07-09T06:44:17;21.70;94.70
60909;DHT22;46780;48.128;-1.704;2023-07-09T06:46:44;21.60;94.30
60909;DHT22;46780;48.128;-1.704;2023-07-09T06:49:10;21.60;94.10
60909;DHT22;46780;48.128;-1.704;2023-07-09T06:51:36;21.60;93.80
60909;DHT22;46780;48.128;-1.704;2023-07-09T06:54:03;21.60;93.30
60909;DHT22;46780;48.128;-1.704;2023-07-09T06:56:29;21.70;92.70
60909;DHT22;46780;48.128;-1.704;2023-07-09T06:58:56;21.60;92.40
60909;DHT22;46780;48.128;-1.704;2023-07-09T07:01:24;21.70;92.10
60909;DHT22;46780;48.128;-1.704;2023-07-09T07:03:50;21.80;91.70
60909;DHT22;46780;48.128;-1.704;2023-07-09T07:06:16;21.80;91.40
60909;DHT22;46780;48.128;-1.704;2023-07-09T07:08:43;21.80;91.40
60909;DHT22;46780;48.128;-1.704;2023-07-09T07:11:09;21.80;91.10
60909;DHT22;46780;48.128;-1.704;2023-07-09T07:13:37;21.80;90.60
60909;DHT22;46780;48.128;-1.704;2023-07-09T07:16:05;21.90;90.60
60909;DHT22;46780;48.128;-1.704;2023-07-09T07:18:34;22.00;90.40
60909;DHT22;46780;48.128;-1.704;2023-07-09T07:21:00;22.00;90.00
60909;DHT22;46780;48.128;-1.704;2023-07-09T07:23:27;22.00;89.70
60909;DHT22;46780;48.128;-1.704;2023-07-09T07:25:54;21.90;89.50
60909;DHT22;46780;48.128;-1.704;2023-07-09T07:28:21;21.90;90.00
60909;DHT22;46780;48.128;-1.704;2023-07-09T07:30:58;21.90;89.90
60909;DHT22;46780;48.128;-1.704;2023-07-09T07:33:24;21.80;90.10
60909;DHT22;46780;48.128;-1.704;2023-07-09T07:35:52;21.80;90.20
60909;DHT22;46780;48.128;-1.704;2023-07-09T07:38:18;21.80;90.10
60909;DHT22;46780;48.128;-1.704;2023-07-09T07:40:45;21.80;90.10
60909;DHT22;46780;48.128;-1.704;2023-07-09T07:43:12;21.80;90.10
60909;DHT22;46780;48.128;-1.704;2023-07-09T07:45:40;21.90;90.20
60909;DHT22;46780;48.128;-1.704;2023-07-09T07:48:06;22.00;90.30
60909;DHT22;46780;48.128;-1.704;2023-07-09T07:50:33;22.10;90.20
60909;DHT22;46780;48.128;-1.704;2023-07-09T07:53:00;22.10;89.80
60909;DHT22;46780;48.128;-1.704;2023-07-09T07:55:27;22.20;88.90
60909;DHT22;46780;48.128;-1.704;2023-07-09T07:57:54;22.30;88.10
60909;DHT22;46780;48.128;-1.704;2023-07-09T08:00:20;22.40;86.60
60909;DHT22;46780;48.128;-1.704;2023-07-09T08:02:46;22.40;85.90
60909;DHT22;46780;48.128;-1.704;2023-07-09T08:05:13;22.40;84.90
60909;DHT22;46780;48.128;-1.704;2023-07-09T08:07:39;22.50;83.80
60909;DHT22;46780;48.128;-1.704;2023-07-09T08:10:08;22.50;82.70
60909;DHT22;46780;48.128;-1.704;2023-07-09T08:12:34;22.50;82.40
60909;DHT22;46780;48.128;-1.704;2023-07-09T08:15:01;22.60;82.20
60909;DHT22;46780;48.128;-1.704;2023-07-09T08:17:27;22.70;81.50
60909;DHT22;46780;48.128;-1.704;2023-07-09T08:19:54;22.60;81.40
60909;DHT22;46780;48.128;-1.704;2023-07-09T08:22:21;22.60;81.70
60909;DHT22;46780;48.128;-1.704;2023-07-09T08:24:48;22.50;83.00
60909;DHT22;46780;48.128;-1.704;2023-07-09T08:27:16;22.50;83.00
60909;DHT22;46780;48.128;-1.704;2023-07-09T08:29:42;22.50;83.70
60909;DHT22;46780;48.128;-1.704;2023-07-09T08:32:09;22.50;83.90
60909;DHT22;46780;48.128;-1.704;2023-07-09T08:34:37;22.50;84.20
60909;DHT22;46780;48.128;-1.704;2023-07-09T08:37:04;22.50;84.40
60909;DHT22;46780;48.128;-1.704;2023-07-09T08:39:31;22.50;84.50
60909;DHT22;46780;48.128;-1.704;2023-07-09T08:42:00;22.30;85.50
60909;DHT22;46780;48.128;-1.704;2023-07-09T08:44:43;22.20;86.80
60909;DHT22;46780;48.128;-1.704;2023-07-09T08:47:16;22.10;88.40
60909;DHT22;46780;48.128;-1.704;2023-07-09T08:49:52;22.00;90.00
60909;DHT22;46780;48.128;-1.704;2023-07-09T08:52:26;22.00;90.60
60909;DHT22;46780;48.128;-1.704;2023-07-09T08:54:55;22.00;91.30
60909;DHT22;46780;48.128;-1.704;2023-07-09T08:57:26;22.10;91.60
60909;DHT22;46780;48.128;-1.704;2023-07-09T08:59:58;22.20;91.70
60909;DHT22;46780;48.128;-1.704;2023-07-09T09:02:31;22.20;92.00
60909;DHT22;46780;48.128;-1.704;2023-07-09T09:04:59;22.30;92.30
60909;DHT22;46780;48.128;-1.704;2023-07-09T09:07:36;22.20;92.50
60909;DHT22;46780;48.128;-1.704;2023-07-09T09:10:04;22.10;92.80
60909;DHT22;46780;48.128;-1.704;2023-07-09T09:12:36;22.00;93.00
60909;DHT22;46780;48.128;-1.704;2023-07-09T09:15:15;22.00;93.20
60909;DHT22;46780;48.128;-1.704;2023-07-09T09:17:42;22.00;93.20
60909;DHT22;46780;48.128;-1.704;2023-07-09T09:20:15;22.00;93.20
60909;DHT22;46780;48.128;-1.704;2023-07-09T09:22:44;22.10;93.20
60909;DHT22;46780;48.128;-1.704;2023-07-09T09:25:21;22.10;93.20
60909;DHT22;46780;48.128;-1.704;2023-07-09T09:27:49;22.20;93.10
60909;DHT22;46780;48.128;-1.704;2023-07-09T09:30:18;22.30;93.00
60909;DHT22;46780;48.128;-1.704;2023-07-09T09:32:47;22.40;93.00
60909;DHT22;46780;48.128;-1.704;2023-07-09T09:35:17;22.40;92.80
60909;DHT22;46780;48.128;-1.704;2023-07-09T09:37:49;22.40;92.70
60909;DHT22;46780;48.128;-1.704;2023-07-09T09:40:17;22.50;92.90
60909;DHT22;46780;48.128;-1.704;2023-07-09T09:42:44;22.40;93.30
60909;DHT22;46780;48.128;-1.704;2023-07-09T09:45:14;22.40;94.40
60909;DHT22;46780;48.128;-1.704;2023-07-09T09:47:45;22.40;94.50
60909;DHT22;46780;48.128;-1.704;2023-07-09T09:50:13;22.40;94.90
60909;DHT22;46780;48.128;-1.704;2023-07-09T09:52:40;22.50;95.00
60909;DHT22;46780;48.128;-1.704;2023-07-09T09:55:11;22.50;95.40
60909;DHT22;46780;48.128;-1.704;2023-07-09T09:57:38;22.50;95.70
60909;DHT22;46780;48.128;-1.704;2023-07-09T10:00:06;22.50;95.60
60909;DHT22;46780;48.128;-1.704;2023-07-09T10:02:39;22.50;95.50
60909;DHT22;46780;48.128;-1.704;2023-07-09T10:05:11;22.40;95.30
60909;DHT22;46780;48.128;-1.704;2023-07-09T10:07:43;22.50;94.80
60909;DHT22;46780;48.128;-1.704;2023-07-09T10:10:13;22.60;94.00
60909;DHT22;46780;48.128;-1.704;2023-07-09T10:12:45;22.60;93.80
60909;DHT22;46780;48.128;-1.704;2023-07-09T10:15:26;22.60;93.20
60909;DHT22;46780;48.128;-1.704;2023-07-09T10:17:59;22.60;90.80
60909;DHT22;46780;48.128;-1.704;2023-07-09T10:20:34;22.50;90.10
60909;DHT22;46780;48.128;-1.704;2023-07-09T10:23:07;22.30;90.60
60909;DHT22;46780;48.128;-1.704;2023-07-09T10:25:44;22.10;90.80
60909;DHT22;46780;48.128;-1.704;2023-07-09T10:28:30;21.90;91.70
60909;DHT22;46780;48.128;-1.704;2023-07-09T10:31:03;21.90;92.30
60909;DHT22;46780;48.128;-1.704;2023-07-09T10:33:40;21.80;92.40
60909;DHT22;46780;48.128;-1.704;2023-07-09T10:36:28;21.90;92.80
60909;DHT22;46780;48.128;-1.704;2023-07-09T10:39:00;21.90;93.10
60909;DHT22;46780;48.128;-1.704;2023-07-09T10:41:28;21.90;93.50
60909;DHT22;46780;48.128;-1.704;2023-07-09T10:44:00;21.90;93.70
60909;DHT22;46780;48.128;-1.704;2023-07-09T10:46:32;21.90;93.50
60909;DHT22;46780;48.128;-1.704;2023-07-09T10:49:00;21.90;93.80
60909;DHT22;46780;48.128;-1.704;2023-07-09T10:51:31;22.00;94.10
60909;DHT22;46780;48.128;-1.704;2023-07-09T10:54:02;22.00;94.40
60909;DHT22;46780;48.128;-1.704;2023-07-09T10:56:32;22.00;94.70
60909;DHT22;46780;48.128;-1.704;2023-07-09T10:59:04;22.10;93.60
60909;DHT22;46780;48.128;-1.704;2023-07-09T11:01:37;22.30;90.60
60909;DHT22;46780;48.128;-1.704;2023-07-09T11:04:10;22.50;87.40
60909;DHT22;46780;48.128;-1.704;2023-07-09T11:06:40;22.60;82.20
60909;DHT22;46780;48.128;-1.704;2023-07-09T11:09:14;22.60;82.70
60909;DHT22;46780;48.128;-1.704;2023-07-09T11:11:48;22.50;82.40
60909;DHT22;46780;48.128;-1.704;2023-07-09T11:14:23;22.40;82.80
60909;DHT22;46780;48.128;-1.704;2023-07-09T11:16:51;22.30;81.50
60909;DHT22;46780;48.128;-1.704;2023-07-09T11:19:20;22.30;79.30
60909;DHT22;46780;48.128;-1.704;2023-07-09T11:22:02;22.20;77.50
60909;DHT22;46780;48.128;-1.704;2023-07-09T11:24:33;22.30;76.50
60909;DHT22;46780;48.128;-1.704;2023-07-09T11:27:00;22.30;76.80
60909;DHT22;46780;48.128;-1.704;2023-07-09T11:29:27;22.30;76.60
60909;DHT22;46780;48.128;-1.704;2023-07-09T11:31:53;22.20;78.10
60909;DHT22;46780;48.128;-1.704;2023-07-09T11:34:20;22.20;79.70
60909;DHT22;46780;48.128;-1.704;2023-07-09T11:36:49;22.10;81.00
60909;DHT22;46780;48.128;-1.704;2023-07-09T11:39:41;22.10;82.50
60909;DHT22;46780;48.128;-1.704;2023-07-09T11:42:24;22.20;84.90
60909;DHT22;46780;48.128;-1.704;2023-07-09T11:44:58;22.30;85.60
60909;DHT22;46780;48.128;-1.704;2023-07-09T11:47:29;22.40;86.00
60909;DHT22;46780;48.128;-1.704;2023-07-09T11:49:59;22.60;86.50
60909;DHT22;46780;48.128;-1.704;2023-07-09T11:52:33;22.70;86.20
60909;DHT22;46780;48.128;-1.704;2023-07-09T11:55:21;22.80;86.70
60909;DHT22;46780;48.128;-1.704;2023-07-09T11:57:48;23.00;87.00
60909;DHT22;46780;48.128;-1.704;2023-07-09T12:00:15;23.10;86.90
60909;DHT22;46780;48.128;-1.704;2023-07-09T12:02:42;23.20;87.40
60909;DHT22;46780;48.128;-1.704;2023-07-09T12:05:10;23.00;88.00
60909;DHT22;46780;48.128;-1.704;2023-07-09T12:07:36;22.80;89.30
60909;DHT22;46780;48.128;-1.704;2023-07-09T12:10:18;22.80;90.30
60909;DHT22;46780;48.128;-1.704;2023-07-09T12:12:45;22.70;90.20
60909;DHT22;46780;48.128;-1.704;2023-07-09T12:15:18;22.60;89.80
60909;DHT22;46780;48.128;-1.704;2023-07-09T12:17:53;22.70;87.90
60909;DHT22;46780;48.128;-1.704;2023-07-09T12:20:19;23.00;85.30
60909;DHT22;46780;48.128;-1.704;2023-07-09T12:22:46;23.30;83.90
60909;DHT22;46780;48.128;-1.704;2023-07-09T12:25:21;23.80;81.40
60909;DHT22;46780;48.128;-1.704;2023-07-09T12:27:48;24.50;76.00
60909;DHT22;46780;48.128;-1.704;2023-07-09T12:30:15;25.10;68.20
60909;DHT22;46780;48.128;-1.704;2023-07-09T12:32:45;25.60;63.20
60909;DHT22;46780;48.128;-1.704;2023-07-09T12:35:13;26.00;61.30
60909;DHT22;46780;48.128;-1.704;2023-07-09T12:37:42;26.50;59.60
60909;DHT22;46780;48.128;-1.704;2023-07-09T12:40:13;26.90;54.80
60909;DHT22;46780;48.128;-1.704;2023-07-09T12:42:42;27.10;51.60
60909;DHT22;46780;48.128;-1.704;2023-07-09T12:45:15;27.10;48.40
60909;DHT22;46780;48.128;-1.704;2023-07-09T12:47:42;27.00;47.60
60909;DHT22;46780;48.128;-1.704;2023-07-09T12:50:18;27.00;47.70
60909;DHT22;46780;48.128;-1.704;2023-07-09T12:52:46;27.30;47.10
60909;DHT22;46780;48.128;-1.704;2023-07-09T12:55:20;27.40;45.70
60909;DHT22;46780;48.128;-1.704;2023-07-09T12:57:48;27.30;46.00
60909;DHT22;46780;48.128;-1.704;2023-07-09T13:00:25;27.00;46.80
60909;DHT22;46780;48.128;-1.704;2023-07-09T13:02:58;26.70;47.10
60909;DHT22;46780;48.128;-1.704;2023-07-09T13:05:26;26.50;48.10
60909;DHT22;46780;48.128;-1.704;2023-07-09T13:07:54;26.60;47.70
60909;DHT22;46780;48.128;-1.704;2023-07-09T13:10:23;26.70;46.80
60909;DHT22;46780;48.128;-1.704;2023-07-09T13:12:54;26.80;46.40
60909;DHT22;46780;48.128;-1.704;2023-07-09T13:15:25;26.90;45.20
60909;DHT22;46780;48.128;-1.704;2023-07-09T13:18:00;26.90;44.90
60909;DHT22;46780;48.128;-1.704;2023-07-09T13:20:27;26.90;44.70
60909;DHT22;46780;48.128;-1.704;2023-07-09T13:22:55;26.80;45.00
60909;DHT22;46780;48.128;-1.704;2023-07-09T13:25:21;26.60;45.40
60909;DHT22;46780;48.128;-1.704;2023-07-09T13:27:48;26.20;46.20
60909;DHT22;46780;48.128;-1.704;2023-07-09T13:30:16;26.10;47.40
60909;DHT22;46780;48.128;-1.704;2023-07-09T13:32:44;26.00;47.90
60909;DHT22;46780;48.128;-1.704;2023-07-09T13:35:14;26.10;48.00
60909;DHT22;46780;48.128;-1.704;2023-07-09T13:37:41;26.20;47.80
60909;DHT22;46780;48.128;-1.704;2023-07-09T13:40:10;26.20;46.90
60909;DHT22;46780;48.128;-1.704;2023-07-09T13:42:37;26.20;47.50
60909;DHT22;46780;48.128;-1.704;2023-07-09T13:45:04;26.10;47.40
60909;DHT22;46780;48.128;-1.704;2023-07-09T13:47:32;26.20;47.80
60909;DHT22;46780;48.128;-1.704;2023-07-09T13:49:59;26.30;46.90
60909;DHT22;46780;48.128;-1.704;2023-07-09T13:52:25;26.60;46.00
60909;DHT22;46780;48.128;-1.704;2023-07-09T13:54:52;26.70;45.80
60909;DHT22;46780;48.128;-1.704;2023-07-09T13:57:21;26.70;46.40
60909;DHT22;46780;48.128;-1.704;2023-07-09T13:59:47;26.50;46.50
60909;DHT22;46780;48.128;-1.704;2023-07-09T14:02:22;26.50;47.00
60909;DHT22;46780;48.128;-1.704;2023-07-09T14:04:50;26.30;47.80
60909;DHT22;46780;48.128;-1.704;2023-07-09T14:07:25;26.30;47.70
60909;DHT22;46780;48.128;-1.704;2023-07-09T14:09:52;26.40;47.10
60909;DHT22;46780;48.128;-1.704;2023-07-09T14:12:18;26.30;47.10
60909;DHT22;46780;48.128;-1.704;2023-07-09T14:14:45;26.20;47.30
60909;DHT22;46780;48.128;-1.704;2023-07-09T14:17:12;26.30;47.80
60909;DHT22;46780;48.128;-1.704;2023-07-09T14:19:39;26.50;47.30
60909;DHT22;46780;48.128;-1.704;2023-07-09T14:22:20;26.60;46.70
60909;DHT22;46780;48.128;-1.704;2023-07-09T14:24:47;26.70;46.20
60909;DHT22;46780;48.128;-1.704;2023-07-09T14:27:13;26.70;46.10
60909;DHT22;46780;48.128;-1.704;2023-07-09T14:29:40;26.60;46.30
60909;DHT22;46780;48.128;-1.704;2023-07-09T14:32:32;26.60;46.00
60909;DHT22;46780;48.128;-1.704;2023-07-09T14:34:59;26.60;46.00
60909;DHT22;46780;48.128;-1.704;2023-07-09T14:37:28;26.60;45.80
60909;DHT22;46780;48.128;-1.704;2023-07-09T14:39:54;26.40;45.40
60909;DHT22;46780;48.128;-1.704;2023-07-09T14:42:21;26.40;46.10
60909;DHT22;46780;48.128;-1.704;2023-07-09T14:44:48;26.40;45.60
60909;DHT22;46780;48.128;-1.704;2023-07-09T14:47:17;26.40;45.90
60909;DHT22;46780;48.128;-1.704;2023-07-09T14:49:44;26.40;46.00
60909;DHT22;46780;48.128;-1.704;2023-07-09T14:52:12;26.40;45.10
60909;DHT22;46780;48.128;-1.704;2023-07-09T14:54:40;26.20;45.10
60909;DHT22;46780;48.128;-1.704;2023-07-09T14:57:17;26.20;44.60
60909;DHT22;46780;48.128;-1.704;2023-07-09T14:59:43;26.40;44.90
60909;DHT22;46780;48.128;-1.704;2023-07-09T15:02:32;26.50;44.30
60909;DHT22;46780;48.128;-1.704;2023-07-09T15:05:00;26.50;42.60
60909;DHT22;46780;48.128;-1.704;2023-07-09T15:07:27;26.40;42.50
60909;DHT22;46780;48.128;-1.704;2023-07-09T15:09:55;26.10;42.60
60909;DHT22;46780;48.128;-1.704;2023-07-09T15:12:26;26.00;43.40
60909;DHT22;46780;48.128;-1.704;2023-07-09T15:14:57;25.80;43.10
60909;DHT22;46780;48.128;-1.704;2023-07-09T15:17:25;25.80;43.20
60909;DHT22;46780;48.128;-1.704;2023-07-09T15:19:51;25.80;42.90
60909;DHT22;46780;48.128;-1.704;2023-07-09T15:22:28;25.80;42.80
60909;DHT22;46780;48.128;-1.704;2023-07-09T15:24:57;25.70;43.10
60909;DHT22;46780;48.128;-1.704;2023-07-09T15:27:24;25.50;43.60